sensor_id;sensor_type;location;lat;lon;timestamp;pressure;altitude;pressure_sealevel;temperature;humidity
60258;BME280;46115;44.484;11.314;2023-04-26T00:03:33;99963.56;;;9.55;84.88
60258;BME280;46115;44.484;11.314;2023-04-26T00:07:35;99971.44;;;9.39;85.98
60258;BME280;46115;44.484;11.314;2023-04-26T00:11:38;99970.78;;;9.51;85.59
60258;BME280;46115;44.484;11.314;2023-04-26T00:15:42;99970.66;;;9.37;85.82
60258;BME280;46115;44.484;11.314;2023-04-26T00:19:44;99970.00;;;9.32;86.12
60258;BME280;46115;44.484;11.314;2023-04-26T00:23:46;99974.91;;;9.40;85.72
60258;BME280;46115;44.484;11.314;2023-04-26T00:27:49;99961.50;;;9.27;86.73
60258;BME280;46115;44.484;11.314;2023-04-26T00:31:52;99973.91;;;9.25;86.36
60258;BME280;46115;44.484;11.314;2023-04-26T00:35:54;99973.94;;;9.07;87.10
60258;BME280;46115;44.484;11.314;2023-04-26T00:39:56;99977.34;;;9.10;86.86
60258;BME280;46115;44.484;11.314;2023-04-26T00:43:59;99970.81;;;9.17;86.36
60258;BME280;46115;44.484;11.314;2023-04-26T00:48:04;99967.47;;;9.13;86.09
60258;BME280;46115;44.484;11.314;2023-04-26T00:52:06;99966.22;;;8.86;87.31
60258;BME280;46115;44.484;11.314;2023-04-26T00:56:10;99954.03;;;8.66;88.30
60258;BME280;46115;44.484;11.314;2023-04-26T01:00:14;99937.72;;;8.77;87.37
60258;BME280;46115;44.484;11.314;2023-04-26T01:04:18;99977.66;;;9.03;86.30
60258;BME280;46115;44.484;11.314;2023-04-26T01:08:22;99974.75;;;8.91;87.16
60258;BME280;46115;44.484;11.314;2023-04-26T01:12:25;99971.53;;;9.03;86.01
60258;BME280;46115;44.484;11.314;2023-04-26T01:16:28;99965.16;;;8.90;86.89
60258;BME280;46115;44.484;11.314;2023-04-26T01:20:32;99976.56;;;9.07;86.19
60258;BME280;46115;44.484;11.314;2023-04-26T01:24:37;99982.03;;;8.86;86.71
60258;BME280;46115;44.484;11.314;2023-04-26T01:28:41;99965.38;;;8.85;87.02
60258;BME280;46115;44.484;11.314;2023-04-26T01:32:43;99969.44;;;8.56;88.35
60258;BME280;46115;44.484;11.314;2023-04-26T01:36:45;99961.94;;;8.66;87.43
60258;BME280;46115;44.484;11.314;2023-04-26T01:40:49;99965.94;;;8.56;88.05
60258;BME280;46115;44.484;11.314;2023-04-26T01:44:51;99972.59;;;8.46;88.10
60258;BME280;46115;44.484;11.314;2023-04-26T01:48:53;99981.44;;;8.44;88.16
60258;BME280;46115;44.484;11.314;2023-04-26T01:52:57;99987.22;;;8.32;88.43
60258;BME280;46115;44.484;11.314;2023-04-26T01:57:00;99980.31;;;8.30;88.73
60258;BME280;46115;44.484;11.314;2023-04-26T02:01:04;99986.69;;;8.44;87.56
60258;BME280;46115;44.484;11.314;2023-04-26T02:05:09;99980.31;;;8.30;88.98
60258;BME280;46115;44.484;11.314;2023-04-26T02:09:12;99949.81;;;8.26;87.77
60258;BME280;46115;44.484;11.314;2023-04-26T02:13:16;99989.38;;;8.24;88.63
60258;BME280;46115;44.484;11.314;2023-04-26T02:17:19;99978.31;;;8.36;88.49
60258;BME280;46115;44.484;11.314;2023-04-26T02:21:22;100000.06;;;8.21;88.34
60258;BME280;46115;44.484;11.314;2023-04-26T02:25:24;99953.88;;;7.95;87.98
60258;BME280;46115;44.484;11.314;2023-04-26T02:29:30;99997.50;;;8.20;88.31
60258;BME280;46115;44.484;11.314;2023-04-26T02:33:32;99999.41;;;8.16;87.72
60258;BME280;46115;44.484;11.314;2023-04-26T02:37:35;99992.16;;;8.21;88.06
60258;BME280;46115;44.484;11.314;2023-04-26T02:41:38;99980.13;;;8.16;87.33
60258;BME280;46115;44.484;11.314;2023-04-26T02:45:42;99983.53;;;8.18;87.06
60258;BME280;46115;44.484;11.314;2023-04-26T02:49:46;99992.22;;;8.20;86.96
60258;BME280;46115;44.484;11.314;2023-04-26T02:53:49;99985.41;;;8.16;87.40
60258;BME280;46115;44.484;11.314;2023-04-26T02:57:52;99996.78;;;8.16;87.23
60258;BME280;46115;44.484;11.314;2023-04-26T03:01:56;99987.41;;;8.10;87.41
60258;BME280;46115;44.484;11.314;2023-04-26T03:05:58;99991.31;;;8.02;87.23
60258;BME280;46115;44.484;11.314;2023-04-26T03:10:00;99982.03;;;7.93;87.72
60258;BME280;46115;44.484;11.314;2023-04-26T03:14:05;99976.91;;;7.71;88.57
60258;BME280;46115;44.484;11.314;2023-04-26T03:18:08;99980.25;;;7.75;88.30
60258;BME280;46115;44.484;11.314;2023-04-26T03:22:12;99991.50;;;7.78;87.80
60258;BME280;46115;44.484;11.314;2023-04-26T03:26:16;99989.66;;;7.80;87.96
60258;BME280;46115;44.484;11.314;2023-04-26T03:30:20;99982.50;;;8.03;86.14
60258;BME280;46115;44.484;11.314;2023-04-26T03:34:24;100009.47;;;7.69;88.18
60258;BME280;46115;44.484;11.314;2023-04-26T03:38:28;100012.63;;;7.77;87.20
60258;BME280;46115;44.484;11.314;2023-04-26T03:42:31;99974.88;;;7.58;88.02
60258;BME280;46115;44.484;11.314;2023-04-26T03:46:34;100020.94;;;7.87;87.13
60258;BME280;46115;44.484;11.314;2023-04-26T03:50:38;100029.03;;;7.82;87.19
60258;BME280;46115;44.484;11.314;2023-04-26T03:54:40;100034.00;;;7.69;88.15
60258;BME280;46115;44.484;11.314;2023-04-26T03:58:42;100030.31;;;7.73;88.03
60258;BME280;46115;44.484;11.314;2023-04-26T04:02:45;100030.47;;;7.50;88.47
60258;BME280;46115;44.484;11.314;2023-04-26T04:06:58;100032.56;;;7.42;89.22
60258;BME280;46115;44.484;11.314;2023-04-26T04:11:01;100039.59;;;7.41;89.35
60258;BME280;46115;44.484;11.314;2023-04-26T04:15:04;100049.72;;;7.30;89.19
60258;BME280;46115;44.484;11.314;2023-04-26T04:19:07;100046.34;;;7.27;88.92
60258;BME280;46115;44.484;11.314;2023-04-26T04:23:11;100044.34;;;7.33;88.79
60258;BME280;46115;44.484;11.314;2023-04-26T04:27:15;100045.19;;;7.34;87.80
60258;BME280;46115;44.484;11.314;2023-04-26T04:31:19;100050.31;;;7.37;88.67
60258;BME280;46115;44.484;11.314;2023-04-26T04:35:22;100063.59;;;7.34;88.92
60258;BME280;46115;44.484;11.314;2023-04-26T04:39:30;100040.84;;;7.33;87.75
60258;BME280;46115;44.484;11.314;2023-04-26T04:43:32;100071.34;;;7.57;87.51
60258;BME280;46115;44.484;11.314;2023-04-26T04:47:35;100077.81;;;7.70;86.27
60258;BME280;46115;44.484;11.314;2023-04-26T04:51:39;100072.91;;;7.81;85.87
60258;BME280;46115;44.484;11.314;2023-04-26T04:55:43;100095.53;;;8.06;84.78
60258;BME280;46115;44.484;11.314;2023-04-26T04:59:48;100096.19;;;8.11;84.66
60258;BME280;46115;44.484;11.314;2023-04-26T05:03:51;100109.34;;;8.50;82.82
60258;BME280;46115;44.484;11.314;2023-04-26T05:07:54;100116.19;;;8.73;81.52
60258;BME280;46115;44.484;11.314;2023-04-26T05:11:58;100119.88;;;8.88;80.13
60258;BME280;46115;44.484;11.314;2023-04-26T05:16:00;100132.28;;;9.04;79.52
60258;BME280;46115;44.484;11.314;2023-04-26T05:20:05;100132.75;;;9.13;78.92
60258;BME280;46115;44.484;11.314;2023-04-26T05:24:08;100142.03;;;9.38;77.73
60258;BME280;46115;44.484;11.314;2023-04-26T05:28:12;100140.03;;;9.61;77.67
60258;BME280;46115;44.484;11.314;2023-04-26T05:32:35;100150.34;;;10.00;76.57
60258;BME280;46115;44.484;11.314;2023-04-26T05:37:07;100155.91;;;10.46;74.70
60258;BME280;46115;44.484;11.314;2023-04-26T05:41:09;100160.44;;;10.44;73.87
60258;BME280;46115;44.484;11.314;2023-04-26T05:45:14;100163.38;;;10.38;74.20
60258;BME280;46115;44.484;11.314;2023-04-26T05:49:17;100169.47;;;11.20;71.86
60258;BME280;46115;44.484;11.314;2023-04-26T05:53:19;100140.84;;;11.27;71.58
60258;BME280;46115;44.484;11.314;2023-04-26T05:57:22;100173.34;;;11.44;71.53
60258;BME280;46115;44.484;11.314;2023-04-26T06:01:26;100181.38;;;11.43;70.87
60258;BME280;46115;44.484;11.314;2023-04-26T06:05:29;100183.06;;;11.44;70.03
60258;BME280;46115;44.484;11.314;2023-04-26T06:09:32;100186.56;;;11.60;70.01
60258;BME280;46115;44.484;11.314;2023-04-26T06:13:34;100187.00;;;11.37;70.08
60258;BME280;46115;44.484;11.314;2023-04-26T06:17:39;100196.34;;;11.74;69.78
60258;BME280;46115;44.484;11.314;2023-04-26T06:21:41;100199.41;;;12.12;67.98
60258;BME280;46115;44.484;11.314;2023-04-26T06:25:44;100203.16;;;12.24;67.51
60258;BME280;46115;44.484;11.314;2023-04-26T06:29:47;100196.66;;;12.72;66.23
60258;BME280;46115;44.484;11.314;2023-04-26T06:33:53;100202.19;;;13.10;64.59
60258;BME280;46115;44.484;11.314;2023-04-26T06:37:56;100196.78;;;13.11;64.38
60258;BME280;46115;44.484;11.314;2023-04-26T06:42:00;100190.19;;;13.72;63.17
60258;BME280;46115;44.484;11.314;2023-04-26T06:46:21;100203.16;;;14.17;61.61
60258;BME280;46115;44.484;11.314;2023-04-26T06:50:29;100213.88;;;15.29;58.17
60258;BME280;46115;44.484;11.314;2023-04-26T06:54:31;100222.78;;;16.13;56.67
60258;BME280;46115;44.484;11.314;2023-04-26T06:58:34;100224.88;;;16.89;54.44
60258;BME280;46115;44.484;11.314;2023-04-26T07:02:36;100226.59;;;16.79;54.32
60258;BME280;46115;44.484;11.314;2023-04-26T07:06:40;100237.50;;;16.98;52.60
60258;BME280;46115;44.484;11.314;2023-04-26T07:10:43;100236.88;;;17.28;52.64
60258;BME280;46115;44.484;11.314;2023-04-26T07:14:45;100235.84;;;18.06;49.56
60258;BME280;46115;44.484;11.314;2023-04-26T07:18:47;100239.28;;;19.01;48.95
60258;BME280;46115;44.484;11.314;2023-04-26T07:22:51;100243.06;;;19.39;47.71
60258;BME280;46115;44.484;11.314;2023-04-26T07:26:55;100233.63;;;18.11;50.15
60258;BME280;46115;44.484;11.314;2023-04-26T07:30:58;100227.28;;;18.95;49.17
60258;BME280;46115;44.484;11.314;2023-04-26T07:35:02;100225.91;;;19.51;48.35
60258;BME280;46115;44.484;11.314;2023-04-26T07:39:07;100195.34;;;20.21;45.82
60258;BME280;46115;44.484;11.314;2023-04-26T07:43:10;100227.69;;;20.00;47.45
60258;BME280;46115;44.484;11.314;2023-04-26T07:47:13;100227.81;;;20.08;46.03
60258;BME280;46115;44.484;11.314;2023-04-26T07:51:16;100229.66;;;20.93;44.62
60258;BME280;46115;44.484;11.314;2023-04-26T07:55:20;100195.06;;;21.17;42.76
60258;BME280;46115;44.484;11.314;2023-04-26T07:59:22;100226.22;;;21.83;42.64
60258;BME280;46115;44.484;11.314;2023-04-26T08:03:25;100229.59;;;21.85;41.31
60258;BME280;46115;44.484;11.314;2023-04-26T08:07:28;100227.19;;;21.09;42.70
60258;BME280;46115;44.484;11.314;2023-04-26T08:11:32;100214.03;;;22.06;41.14
60258;BME280;46115;44.484;11.314;2023-04-26T08:15:35;100243.31;;;22.71;39.87
60258;BME280;46115;44.484;11.314;2023-04-26T08:19:37;100247.59;;;22.82;39.87
60258;BME280;46115;44.484;11.314;2023-04-26T08:23:40;100236.00;;;22.37;41.54
60258;BME280;46115;44.484;11.314;2023-04-26T08:27:43;100240.78;;;22.95;39.62
60258;BME280;46115;44.484;11.314;2023-04-26T08:31:46;100247.78;;;23.14;39.17
60258;BME280;46115;44.484;11.314;2023-04-26T08:35:49;100253.34;;;23.13;38.99
60258;BME280;46115;44.484;11.314;2023-04-26T08:39:51;100246.16;;;22.69;39.52
60258;BME280;46115;44.484;11.314;2023-04-26T08:43:55;100250.28;;;24.24;37.95
60258;BME280;46115;44.484;11.314;2023-04-26T08:48:03;100259.06;;;24.10;37.04
60258;BME280;46115;44.484;11.314;2023-04-26T08:52:10;100252.25;;;23.82;38.33
60258;BME280;46115;44.484;11.314;2023-04-26T08:56:13;100251.19;;;24.33;36.52
60258;BME280;46115;44.484;11.314;2023-04-26T09:00:17;100251.81;;;24.19;36.17
60258;BME280;46115;44.484;11.314;2023-04-26T09:04:20;100256.88;;;24.22;35.64
60258;BME280;46115;44.484;11.314;2023-04-26T09:08:22;100245.91;;;24.72;35.85
60258;BME280;46115;44.484;11.314;2023-04-26T09:12:25;100245.00;;;24.88;34.56
60258;BME280;46115;44.484;11.314;2023-04-26T09:16:35;100254.22;;;24.38;36.38
60258;BME280;46115;44.484;11.314;2023-04-26T09:20:37;100240.94;;;24.92;36.44
60258;BME280;46115;44.484;11.314;2023-04-26T09:24:46;100238.75;;;21.92;38.79
60258;BME280;46115;44.484;11.314;2023-04-26T09:29:10;100226.78;;;22.22;38.87
60258;BME280;46115;44.484;11.314;2023-04-26T09:33:15;100229.72;;;21.11;40.80
60258;BME280;46115;44.484;11.314;2023-04-26T09:37:17;100227.00;;;21.48;41.61
60258;BME280;46115;44.484;11.314;2023-04-26T09:41:20;100227.97;;;22.71;39.11
60258;BME280;46115;44.484;11.314;2023-04-26T09:45:22;100220.94;;;21.91;40.39
60258;BME280;46115;44.484;11.314;2023-04-26T09:49:27;100219.31;;;22.86;38.78
60258;BME280;46115;44.484;11.314;2023-04-26T09:53:30;100208.88;;;22.57;39.21
60258;BME280;46115;44.484;11.314;2023-04-26T09:57:41;100219.78;;;22.29;39.34
60258;BME280;46115;44.484;11.314;2023-04-26T10:01:44;100216.25;;;22.11;40.85
60258;BME280;46115;44.484;11.314;2023-04-26T10:05:48;100205.94;;;22.06;40.73
60258;BME280;46115;44.484;11.314;2023-04-26T10:09:51;100203.13;;;21.45;41.37
60258;BME280;46115;44.484;11.314;2023-04-26T10:13:55;100207.00;;;22.14;41.13
60258;BME280;46115;44.484;11.314;2023-04-26T10:17:57;100203.91;;;21.00;42.60
60258;BME280;46115;44.484;11.314;2023-04-26T10:22:04;100205.34;;;21.49;42.05
60258;BME280;46115;44.484;11.314;2023-04-26T10:26:45;100189.16;;;21.77;41.81
60258;BME280;46115;44.484;11.314;2023-04-26T10:30:55;100203.53;;;20.85;43.63
60258;BME280;46115;44.484;11.314;2023-04-26T10:35:08;100186.03;;;19.96;45.05
60258;BME280;46115;44.484;11.314;2023-04-26T10:39:19;100183.59;;;19.45;46.67
60258;BME280;46115;44.484;11.314;2023-04-26T10:43:26;100166.78;;;20.49;44.77
60258;BME280;46115;44.484;11.314;2023-04-26T10:47:30;100175.59;;;20.69;43.90
60258;BME280;46115;44.484;11.314;2023-04-26T10:51:33;100151.16;;;19.96;45.20
60258;BME280;46115;44.484;11.314;2023-04-26T10:55:41;100185.47;;;19.92;45.87
60258;BME280;46115;44.484;11.314;2023-04-26T11:04:49;100181.66;;;19.56;46.52
60258;BME280;46115;44.484;11.314;2023-04-26T11:08:52;100160.25;;;18.55;47.06
60258;BME280;46115;44.484;11.314;2023-04-26T11:13:00;100170.34;;;19.53;45.80
60258;BME280;46115;44.484;11.314;2023-04-26T11:17:03;100165.56;;;19.07;45.27
60258;BME280;46115;44.484;11.314;2023-04-26T11:21:05;100154.28;;;19.62;44.88
60258;BME280;46115;44.484;11.314;2023-04-26T11:25:08;100148.94;;;18.42;46.07
60258;BME280;46115;44.484;11.314;2023-04-26T11:29:19;100141.88;;;19.81;44.41
60258;BME280;46115;44.484;11.314;2023-04-26T11:33:21;100146.84;;;19.16;44.33
60258;BME280;46115;44.484;11.314;2023-04-26T11:37:24;100133.16;;;18.39;46.31
60258;BME280;46115;44.484;11.314;2023-04-26T11:41:27;100137.63;;;18.99;45.30
60258;BME280;46115;44.484;11.314;2023-04-26T11:45:32;100133.91;;;19.50;43.86
60258;BME280;46115;44.484;11.314;2023-04-26T11:49:36;100129.22;;;18.43;45.21
60258;BME280;46115;44.484;11.314;2023-04-26T11:53:40;100133.44;;;18.15;44.75
60258;BME280;46115;44.484;11.314;2023-04-26T11:57:43;100121.19;;;19.14;42.59
60258;BME280;46115;44.484;11.314;2023-04-26T12:01:50;100125.00;;;19.21;42.79
60258;BME280;46115;44.484;11.314;2023-04-26T12:05:53;100127.19;;;19.56;43.14
60258;BME280;46115;44.484;11.314;2023-04-26T12:09:56;100115.59;;;19.75;42.04
60258;BME280;46115;44.484;11.314;2023-04-26T12:13:58;100125.16;;;20.16;40.93
60258;BME280;46115;44.484;11.314;2023-04-26T12:18:07;100115.72;;;19.73;40.78
60258;BME280;46115;44.484;11.314;2023-04-26T12:22:10;100095.41;;;19.71;41.89
60258;BME280;46115;44.484;11.314;2023-04-26T12:26:12;100098.09;;;19.61;40.92
60258;BME280;46115;44.484;11.314;2023-04-26T12:30:15;100110.50;;;19.91;40.52
60258;BME280;46115;44.484;11.314;2023-04-26T12:34:19;100114.19;;;19.90;39.52
60258;BME280;46115;44.484;11.314;2023-04-26T12:38:21;100103.84;;;19.27;39.83
60258;BME280;46115;44.484;11.314;2023-04-26T12:42:24;100099.03;;;19.21;40.90
60258;BME280;46115;44.484;11.314;2023-04-26T12:46:27;100101.16;;;20.05;39.99
60258;BME280;46115;44.484;11.314;2023-04-26T12:50:30;100103.13;;;20.12;39.57
60258;BME280;46115;44.484;11.314;2023-04-26T12:54:33;100110.78;;;19.49;39.14
60258;BME280;46115;44.484;11.314;2023-04-26T12:58:35;100102.06;;;19.57;38.27
60258;BME280;46115;44.484;11.314;2023-04-26T13:02:38;100100.91;;;19.50;38.40
60258;BME280;46115;44.484;11.314;2023-04-26T13:06:42;100091.75;;;19.43;37.93
60258;BME280;46115;44.484;11.314;2023-04-26T13:10:44;100089.47;;;19.48;37.66
60258;BME280;46115;44.484;11.314;2023-04-26T13:14:47;100089.31;;;19.98;37.28
60258;BME280;46115;44.484;11.314;2023-04-26T13:18:49;100091.91;;;20.27;37.31
60258;BME280;46115;44.484;11.314;2023-04-26T13:22:53;100091.66;;;20.20;36.47
60258;BME280;46115;44.484;11.314;2023-04-26T13:26:56;100094.56;;;20.46;36.26
60258;BME280;46115;44.484;11.314;2023-04-26T13:30:59;100087.22;;;20.48;36.38
60258;BME280;46115;44.484;11.314;2023-04-26T13:35:02;100084.97;;;20.43;36.82
60258;BME280;46115;44.484;11.314;2023-04-26T13:39:06;100087.88;;;20.03;37.62
60258;BME280;46115;44.484;11.314;2023-04-26T13:43:09;100069.56;;;20.36;36.75
60258;BME280;46115;44.484;11.314;2023-04-26T13:47:11;100092.09;;;20.15;37.27
60258;BME280;46115;44.484;11.314;2023-04-26T13:51:14;100091.00;;;19.99;36.50
60258;BME280;46115;44.484;11.314;2023-04-26T13:55:17;100081.97;;;19.32;36.40
60258;BME280;46115;44.484;11.314;2023-04-26T13:59:20;100077.34;;;19.73;36.08
60258;BME280;46115;44.484;11.314;2023-04-26T14:03:23;100062.38;;;19.80;36.53
60258;BME280;46115;44.484;11.314;2023-04-26T14:07:26;100069.00;;;20.32;36.22
60258;BME280;46115;44.484;11.314;2023-04-26T14:11:30;100067.38;;;20.21;35.70
60258;BME280;46115;44.484;11.314;2023-04-26T14:15:33;100070.97;;;19.93;35.82
60258;BME280;46115;44.484;11.314;2023-04-26T14:19:35;100057.53;;;20.49;35.57
60258;BME280;46115;44.484;11.314;2023-04-26T14:23:38;100067.28;;;20.50;34.59
60258;BME280;46115;44.484;11.314;2023-04-26T14:27:42;100066.38;;;20.22;34.92
60258;BME280;46115;44.484;11.314;2023-04-26T14:31:44;100063.25;;;20.64;34.07
60258;BME280;46115;44.484;11.314;2023-04-26T14:35:47;100051.19;;;20.50;35.51
60258;BME280;46115;44.484;11.314;2023-04-26T14:39:49;100048.28;;;20.62;33.67
60258;BME280;46115;44.484;11.314;2023-04-26T14:43:53;100048.66;;;20.49;33.36
60258;BME280;46115;44.484;11.314;2023-04-26T14:47:56;100049.75;;;20.46;33.92
60258;BME280;46115;44.484;11.314;2023-04-26T14:51:58;100049.94;;;20.35;33.86
60258;BME280;46115;44.484;11.314;2023-04-26T14:56:01;100052.59;;;20.35;33.33
60258;BME280;46115;44.484;11.314;2023-04-26T15:00:08;100047.88;;;20.10;33.69
60258;BME280;46115;44.484;11.314;2023-04-26T15:04:15;100041.66;;;20.19;34.14
60258;BME280;46115;44.484;11.314;2023-04-26T15:08:17;100042.91;;;19.78;33.36
60258;BME280;46115;44.484;11.314;2023-04-26T15:12:20;100045.03;;;19.65;33.96
60258;BME280;46115;44.484;11.314;2023-04-26T15:16:24;100041.63;;;19.72;34.22
60258;BME280;46115;44.484;11.314;2023-04-26T15:20:26;100038.34;;;20.35;34.00
60258;BME280;46115;44.484;11.314;2023-04-26T15:24:29;100039.81;;;19.63;33.53
60258;BME280;46115;44.484;11.314;2023-04-26T15:28:31;100045.66;;;20.05;34.15
60258;BME280;46115;44.484;11.314;2023-04-26T15:32:35;100047.88;;;19.53;34.28
60258;BME280;46115;44.484;11.314;2023-04-26T15:36:38;100048.69;;;19.83;34.97
60258;BME280;46115;44.484;11.314;2023-04-26T15:40:40;100052.78;;;19.68;34.48
60258;BME280;46115;44.484;11.314;2023-04-26T15:44:43;100052.41;;;20.09;34.66
60258;BME280;46115;44.484;11.314;2023-04-26T15:48:47;100049.41;;;19.66;34.47
60258;BME280;46115;44.484;11.314;2023-04-26T15:52:50;100051.56;;;20.18;33.75
60258;BME280;46115;44.484;11.314;2023-04-26T15:56:52;100058.78;;;20.08;34.24
60258;BME280;46115;44.484;11.314;2023-04-26T16:00:55;100047.34;;;20.16;33.34
60258;BME280;46115;44.484;11.314;2023-04-26T16:04:59;100052.78;;;19.68;36.08
60258;BME280;46115;44.484;11.314;2023-04-26T16:09:01;100037.97;;;19.35;38.92
60258;BME280;46115;44.484;11.314;2023-04-26T16:13:07;100032.34;;;19.57;40.04
60258;BME280;46115;44.484;11.314;2023-04-26T16:17:10;100017.78;;;18.92;42.00
60258;BME280;46115;44.484;11.314;2023-04-26T16:21:14;100050.25;;;19.27;41.96
60258;BME280;46115;44.484;11.314;2023-04-26T16:25:16;100045.47;;;19.12;42.56
60258;BME280;46115;44.484;11.314;2023-04-26T16:29:19;100042.31;;;19.07;42.78
60258;BME280;46115;44.484;11.314;2023-04-26T16:33:21;100037.53;;;19.00;43.39
60258;BME280;46115;44.484;11.314;2023-04-26T16:37:25;100026.28;;;18.57;44.24
60258;BME280;46115;44.484;11.314;2023-04-26T16:41:28;100041.91;;;18.92;43.81
60258;BME280;46115;44.484;11.314;2023-04-26T16:45:30;100037.31;;;18.63;44.30
60258;BME280;46115;44.484;11.314;2023-04-26T16:49:32;100049.25;;;18.19;45.55
60258;BME280;46115;44.484;11.314;2023-04-26T16:53:36;100048.38;;;18.49;44.97
60258;BME280;46115;44.484;11.314;2023-04-26T16:57:39;100044.88;;;18.49;45.16
60258;BME280;46115;44.484;11.314;2023-04-26T17:01:42;100055.78;;;18.66;45.23
60258;BME280;46115;44.484;11.314;2023-04-26T17:05:46;100053.38;;;18.33;45.94
60258;BME280;46115;44.484;11.314;2023-04-26T17:09:52;100044.47;;;18.23;45.81
60258;BME280;46115;44.484;11.314;2023-04-26T17:13:55;100037.53;;;18.51;45.83
60258;BME280;46115;44.484;11.314;2023-04-26T17:17:58;100059.78;;;18.11;46.82
60258;BME280;46115;44.484;11.314;2023-04-26T17:22:00;100058.53;;;18.15;46.61
60258;BME280;46115;44.484;11.314;2023-04-26T17:26:04;100054.44;;;18.11;46.55
60258;BME280;46115;44.484;11.314;2023-04-26T17:30:07;100056.19;;;18.01;46.70
60258;BME280;46115;44.484;11.314;2023-04-26T17:34:10;100056.03;;;18.02;46.28
60258;BME280;46115;44.484;11.314;2023-04-26T17:38:13;100060.63;;;17.91;46.47
60258;BME280;46115;44.484;11.314;2023-04-26T17:42:17;100050.81;;;17.70;46.94
60258;BME280;46115;44.484;11.314;2023-04-26T17:46:19;100053.41;;;17.82;47.47
60258;BME280;46115;44.484;11.314;2023-04-26T17:50:22;100050.41;;;17.75;47.06
60258;BME280;46115;44.484;11.314;2023-04-26T17:54:24;100058.50;;;17.85;47.01
60258;BME280;46115;44.484;11.314;2023-04-26T17:58:28;100051.81;;;17.37;48.43
60258;BME280;46115;44.484;11.314;2023-04-26T18:02:31;100063.78;;;17.64;48.18
60258;BME280;46115;44.484;11.314;2023-04-26T18:06:33;100061.97;;;17.64;47.73
60258;BME280;46115;44.484;11.314;2023-04-26T18:10:36;100062.81;;;17.76;47.62
60258;BME280;46115;44.484;11.314;2023-04-26T18:14:40;100055.16;;;17.19;49.17
60258;BME280;46115;44.484;11.314;2023-04-26T18:18:45;100067.81;;;17.05;49.92
60258;BME280;46115;44.484;11.314;2023-04-26T18:22:48;100063.72;;;16.90;50.38
60258;BME280;46115;44.484;11.314;2023-04-26T18:26:50;100072.78;;;16.99;50.53
60258;BME280;46115;44.484;11.314;2023-04-26T18:30:56;100081.06;;;16.96;50.59
60258;BME280;46115;44.484;11.314;2023-04-26T18:34:59;100088.66;;;16.68;51.24
60258;BME280;46115;44.484;11.314;2023-04-26T18:39:01;100086.09;;;16.67;51.53
60258;BME280;46115;44.484;11.314;2023-04-26T18:43:04;100096.16;;;16.41;52.37
60258;BME280;46115;44.484;11.314;2023-04-26T18:47:08;100094.28;;;16.64;52.20
60258;BME280;46115;44.484;11.314;2023-04-26T18:51:11;100099.78;;;16.40;52.65
60258;BME280;46115;44.484;11.314;2023-04-26T18:55:13;100111.75;;;16.12;53.90
60258;BME280;46115;44.484;11.314;2023-04-26T22:06:08;100189.91;;;13.23;64.02
60258;BME280;46115;44.484;11.314;2023-04-26T22:10:11;100196.31;;;13.33;63.96
60258;BME280;46115;44.484;11.314;2023-04-26T22:14:13;100195.38;;;13.34;64.70
60258;BME280;46115;44.484;11.314;2023-04-26T22:18:16;100202.06;;;13.40;64.72
60258;BME280;46115;44.484;11.314;2023-04-26T22:22:20;100204.84;;;13.10;65.98
60258;BME280;46115;44.484;11.314;2023-04-26T22:26:22;100209.69;;;13.18;65.47
60258;BME280;46115;44.484;11.314;2023-04-26T22:30:25;100213.69;;;12.96;66.51
60258;BME280;46115;44.484;11.314;2023-04-26T22:34:27;100214.84;;;12.92;66.85
60258;BME280;46115;44.484;11.314;2023-04-26T22:38:31;100214.75;;;12.94;67.07
60258;BME280;46115;44.484;11.314;2023-04-26T22:42:33;100217.97;;;12.70;67.75
60258;BME280;46115;44.484;11.314;2023-04-26T22:46:36;100224.78;;;12.60;69.07
60258;BME280;46115;44.484;11.314;2023-04-26T22:50:38;100233.13;;;12.54;68.96
60258;BME280;46115;44.484;11.314;2023-04-26T22:54:42;100227.78;;;12.40;70.42
60258;BME280;46115;44.484;11.314;2023-04-26T22:58:45;100232.78;;;12.30;70.24
60258;BME280;46115;44.484;11.314;2023-04-26T23:02:47;100233.63;;;12.16;71.63
60258;BME280;46115;44.484;11.314;2023-04-26T23:06:50;100240.66;;;12.32;70.89
60258;BME280;46115;44.484;11.314;2023-04-26T23:10:54;100239.69;;;12.33;70.60
60258;BME280;46115;44.484;11.314;2023-04-26T23:14:57;100239.97;;;12.28;71.13
60258;BME280;46115;44.484;11.314;2023-04-26T23:18:59;100244.81;;;12.22;71.22
60258;BME280;46115;44.484;11.314;2023-04-26T23:23:02;100241.22;;;12.37;70.74
60258;BME280;46115;44.484;11.314;2023-04-26T23:27:06;100249.50;;;12.61;70.04
60258;BME280;46115;44.484;11.314;2023-04-26T23:31:08;100250.50;;;12.44;69.86
60258;BME280;46115;44.484;11.314;2023-04-26T23:35:11;100243.13;;;12.35;69.83
60258;BME280;46115;44.484;11.314;2023-04-26T23:39:13;100243.47;;;12.29;70.42
60258;BME280;46115;44.484;11.314;2023-04-26T23:43:17;100204.13;;;11.93;70.50
60258;BME280;46115;44.484;11.314;2023-04-26T23:47:20;100242.94;;;12.08;70.29
60258;BME280;46115;44.484;11.314;2023-04-26T23:51:22;100244.97;;;12.18;69.81
60258;BME280;46115;44.484;11.314;2023-04-26T23:55:25;100241.06;;;12.54;68.28
60258;BME280;46115;44.484;11.314;2023-04-26T23:59:29;100241.09;;;12.24;68.98
